Nearby METAR Reports

 

KSJC - San Jose, California, USA
Distance from station: NE 14km
Actualización: 25/01/2022 01:53
Few Clouds
Few Clouds
 Viento del NNO
Viento: NNO 17 km/h
Temperatura: 14°C
Rocío: 7°C
Humedad: 63%
Barómetro: 1018.6 hPa
Clouds: Few Clouds
Visibilidad: 16 km
Cloud details: Few Clouds 2438 m
2022/01/25 00:53 KSJC 250053Z 33009KT 10SM FEW080 14/07 A3008 RMK AO2 SLP183 T01440072
KNUQ - Moffett Nas/Mtn, California, USA
Distance from station: N 14km
Actualización: 25/01/2022 02:15
Despejado
Despejado
 Viento del NNO
Viento: NNO 13 km/h, Racha: 22 km/h
Temperatura: 13°C
Rocío: 9°C
Humedad: 77%
Barómetro: 1018.6 hPa
Clouds: Despejado
Visibilidad: 14 km
2022/01/25 01:15 KNUQ 250115Z AUTO 34007G12KT 9SM CLR 13/09 A3008 RMK AO2
 
KPAO - Palo Alto, California, USA
Distance from station: NNO 23km
Actualización: 25/01/2022 01:47
Despejado
Despejado
 Viento del NNO
Viento: NNO 22 km/h
Temperatura: 13°C
Rocío: 8°C
Humedad: 72%
Barómetro: 1018.6 hPa
Clouds: Despejado
Visibilidad: 16 km
2022/01/25 00:47 KPAO 250047Z 33012KT 10SM SKC 13/08 A3008
KRHV - San Jose/Reid, California, USA
Distance from station: ENE 19km
Actualización: 25/01/2022 00:50
NOT Current
Despejado
Despejado
 Viento del NO
Viento: NO 9 km/h
Temperatura: 17°C
Rocío: 4°C
Humedad: 42%
Barómetro: 1018.6 hPa
Clouds: Despejado
Visibilidad: 16 km
2022/01/24 23:50 KRHV 242350Z 32005KT 10SM SKC 17/04 A3008
 
KOAK - Oakland, California, USA
Distance from station: NNO 50km
Actualización: 25/01/2022 01:53
Few Clouds
Few Clouds
 Viento del O
Viento: O 17 km/h
Temperatura: 12°C
Rocío: 9°C
Humedad: 82%
Barómetro: 1019.3 hPa
Clouds: Few Clouds
Visibilidad: 16 km
Cloud details: Few Clouds 183 m
Few Clouds 6096 m
2022/01/25 00:53 KOAK 250053Z 28009KT 10SM FEW006 FEW200 12/09 A3010 RMK AO2 SLP191 HZ ALQDS FM SFC-017 T01220094
KSQL - San Carlos Airpo, California, USA
Distance from station: NO 34km
Actualización: 25/01/2022 01:47
Despejado
Despejado
 Viento del NNO
Viento: NNO 15 km/h
Temperatura: 14°C
Rocío: 8°C
Humedad: 67%
Barómetro: 1019 hPa
Clouds: Despejado
Visibilidad: 16 km
2022/01/25 00:47 KSQL 250047Z 33008KT 10SM CLR 14/08 A3009
 
KSFO - San Francisco, California, USA
Distance from station: NO 49km
Actualización: 25/01/2022 01:56
Few Clouds
Few Clouds
 Viento del O
Viento: O 22 km/h
Temperatura: 12°C
Rocío: 9°C
Humedad: 82%
Barómetro: 1019 hPa
Clouds: Few Clouds
Visibilidad: 16 km
Cloud details: Few Clouds 366 m
Few Clouds 488 m
2022/01/25 00:56 KSFO 250056Z 28012KT 10SM FEW012 FEW016 12/09 A3009 RMK AO2 SLP187 T01220089
KE16 - San Martin, California, USA
Distance from station: ESE 43km
Actualización: 25/01/2022 02:10
Despejado
Despejado
 Viento del NO
Viento: NO 7 km/h
Temperatura: 16°C
Rocío: 2°C
Humedad: 39%
Barómetro: 1018.6 hPa
Clouds: Despejado
Visibilidad: 16 km
2022/01/25 01:10 KE16 250110Z AUTO 32004KT 10SM CLR 16/02 A3008 RMK AO2 PWINO PNO
 
KWVI - Watsonville, California, USA
Distance from station: SSE 44km
Actualización: 25/01/2022 01:53
Despejado
Despejado
 Viento del SE
Viento: SE 7 km/h
Temperatura: 13°C
Rocío: 9°C
Humedad: 77%
Barómetro: 1019 hPa
Clouds: Despejado
Visibilidad: 16 km
2022/01/25 00:53 KWVI 250053Z AUTO 14004KT 10SM CLR 13/09 A3009 RMK AO2 SLP188 T01280094
KHAF - Half Moon Bay, California, USA
Distance from station: ONO 50km
Actualización: 25/01/2022 02:15
Mist, Despejado
Mist, Despejado
 Viento del NNO
Viento: NNO 7 km/h
Temperatura: 11°C
Rocío: 11°C
Humedad: 100%
Barómetro: 1019.3 hPa
Resumen: Mist
Clouds: Despejado
Visibilidad: 6 km
2022/01/25 01:15 KHAF 250115Z AUTO 33004KT 4SM BR CLR 11/11 A3010 RMK AO2
 
KHWD - Hayward, California, USA
Distance from station: N 44km
Actualización: 25/01/2022 01:54
Despejado
Despejado
 Viento del ONO
Viento: ONO 20 km/h
Temperatura: 13°C
Rocío: 8°C
Humedad: 72%
Barómetro: 1018.6 hPa
Clouds: Despejado
Visibilidad: 13 km
2022/01/25 00:54 KHWD 250054Z 30011KT 8SM CLR 13/08 A3008 RMK AO2 SLP195 T01330078
KLVK - Livermore, California, USA
Distance from station: NNE 51km
Actualización: 25/01/2022 01:53
Despejado
Despejado
 Viento del O
Viento: O 9 km/h
Temperatura: 14°C
Rocío: 6°C
Humedad: 59%
Barómetro: 1017.9 hPa
Clouds: Despejado
Visibilidad: 16 km
2022/01/25 00:53 KLVK 250053Z 28005KT 10SM CLR 14/06 A3006 RMK AO2 SLP178 T01440061